Shimojishima, Shimojishima Airport (RORS)

NameShimojishima Airport
CityShimojishima
CountryJapan
ICAORORS
IATASHI
Altitude2 m
CoordinatesGoogle Map
Live Air TrafficLiveATC.net
METARRORS 201000Z 36026G36KT 9000 -SHRA FEW015 BKN021 28/26 Q0991
2019-09-20 10:00:00 Wind: North (360°) 13.38 m/s - Visibility: 9000 m - Weather: Light Showers Rain - Temperature: 28 °C - Dew point: 26 °C - Humidity: 88.9% - Pressure: 0991 hPa
Statistics

The table below shows the detailed information of all flights to/from Shimojishima, Shimojishima Airport (RORS).